sensor_id;sensor_type;location;lat;lon;timestamp;pressure;altitude;pressure_sealevel;temperature;humidity
13209;BME280;6669;42.678;23.332;2023-02-19T00:01:57;94822.19;;;6.88;100.00
13209;BME280;6669;42.678;23.332;2023-02-19T00:04:25;94819.66;;;6.78;100.00
13209;BME280;6669;42.678;23.332;2023-02-19T00:06:53;94814.22;;;6.81;100.00
13209;BME280;6669;42.678;23.332;2023-02-19T00:09:21;94814.09;;;6.73;100.00
13209;BME280;6669;42.678;23.332;2023-02-19T00:11:49;94808.72;;;6.57;100.00
13209;BME280;6669;42.678;23.332;2023-02-19T00:14:19;94809.19;;;6.52;100.00
13209;BME280;6669;42.678;23.332;2023-02-19T00:16:48;94809.41;;;6.59;100.00
13209;BME280;6669;42.678;23.332;2023-02-19T00:19:19;94804.25;;;6.59;100.00
13209;BME280;6669;42.678;23.332;2023-02-19T00:21:49;94808.63;;;6.58;100.00
13209;BME280;6669;42.678;23.332;2023-02-19T00:24:20;94812.56;;;6.52;100.00
13209;BME280;6669;42.678;23.332;2023-02-19T00:26:48;94805.13;;;6.49;100.00
13209;BME280;6669;42.678;23.332;2023-02-19T00:29:18;94797.69;;;6.64;100.00
13209;BME280;6669;42.678;23.332;2023-02-19T00:31:47;94807.19;;;6.74;100.00
13209;BME280;6669;42.678;23.332;2023-02-19T00:34:18;94793.16;;;6.76;100.00
13209;BME280;6669;42.678;23.332;2023-02-19T00:36:46;94797.69;;;6.64;100.00
13209;BME280;6669;42.678;23.332;2023-02-19T00:39:15;94791.44;;;6.67;100.00
13209;BME280;6669;42.678;23.332;2023-02-19T00:41:44;94786.78;;;6.70;100.00
13209;BME280;6669;42.678;23.332;2023-02-19T00:44:13;94789.56;;;6.59;100.00
13209;BME280;6669;42.678;23.332;2023-02-19T00:46:42;94791.88;;;6.62;100.00
13209;BME280;6669;42.678;23.332;2023-02-19T00:49:15;94779.84;;;6.43;100.00
13209;BME280;6669;42.678;23.332;2023-02-19T00:51:48;94774.28;;;6.48;100.00
13209;BME280;6669;42.678;23.332;2023-02-19T00:54:17;94785.06;;;6.24;100.00
13209;BME280;6669;42.678;23.332;2023-02-19T00:56:45;94762.44;;;6.45;100.00
13209;BME280;6669;42.678;23.332;2023-02-19T00:59:13;94768.47;;;6.36;100.00
13209;BME280;6669;42.678;23.332;2023-02-19T01:01:42;94762.72;;;6.42;100.00
13209;BME280;6669;42.678;23.332;2023-02-19T01:04:11;94777.81;;;6.47;100.00
13209;BME280;6669;42.678;23.332;2023-02-19T01:06:39;94771.16;;;6.44;100.00
13209;BME280;6669;42.678;23.332;2023-02-19T01:09:14;94764.78;;;6.38;100.00
13209;BME280;6669;42.678;23.332;2023-02-19T01:11:44;94769.38;;;6.45;100.00
13209;BME280;6669;42.678;23.332;2023-02-19T01:14:12;94777.91;;;6.45;100.00
13209;BME280;6669;42.678;23.332;2023-02-19T01:16:43;94765.28;;;6.52;100.00
13209;BME280;6669;42.678;23.332;2023-02-19T01:19:12;94773.34;;;6.39;100.00
13209;BME280;6669;42.678;23.332;2023-02-19T01:21:40;94761.16;;;6.31;100.00
13209;BME280;6669;42.678;23.332;2023-02-19T01:24:20;94772.47;;;6.20;100.00
13209;BME280;6669;42.678;23.332;2023-02-19T01:26:48;94766.91;;;6.15;100.00
13209;BME280;6669;42.678;23.332;2023-02-19T01:29:17;94783.47;;;6.22;100.00
13209;BME280;6669;42.678;23.332;2023-02-19T01:31:45;94783.31;;;6.24;100.00
13209;BME280;6669;42.678;23.332;2023-02-19T01:34:13;94790.22;;;6.24;100.00
13209;BME280;6669;42.678;23.332;2023-02-19T01:36:41;94784.81;;;6.17;100.00
13209;BME280;6669;42.678;23.332;2023-02-19T01:39:10;94786.16;;;6.21;100.00
13209;BME280;6669;42.678;23.332;2023-02-19T01:41:43;94790.31;;;6.04;100.00
13209;BME280;6669;42.678;23.332;2023-02-19T01:47:14;94826.56;;;6.12;100.00
13209;BME280;6669;42.678;23.332;2023-02-19T01:49:44;94818.38;;;6.17;100.00
13209;BME280;6669;42.678;23.332;2023-02-19T01:52:16;94818.81;;;6.12;100.00
13209;BME280;6669;42.678;23.332;2023-02-19T01:54:47;94810.25;;;6.02;100.00
13209;BME280;6669;42.678;23.332;2023-02-19T01:57:19;94790.44;;;6.02;100.00
13209;BME280;6669;42.678;23.332;2023-02-19T01:59:51;94817.69;;;6.25;100.00
13209;BME280;6669;42.678;23.332;2023-02-19T02:02:21;94795.88;;;5.99;100.00
13209;BME280;6669;42.678;23.332;2023-02-19T02:04:51;94818.28;;;6.09;100.00
13209;BME280;6669;42.678;23.332;2023-02-19T02:07:19;94810.16;;;6.03;100.00
13209;BME280;6669;42.678;23.332;2023-02-19T02:10:05;94815.69;;;5.89;100.00
13209;BME280;6669;42.678;23.332;2023-02-19T02:12:52;94819.75;;;5.92;100.00
13209;BME280;6669;42.678;23.332;2023-02-19T02:15:23;94805.38;;;5.89;100.00
13209;BME280;6669;42.678;23.332;2023-02-19T02:17:56;94794.09;;;5.80;100.00
13209;BME280;6669;42.678;23.332;2023-02-19T02:20:35;94814.47;;;5.93;100.00
13209;BME280;6669;42.678;23.332;2023-02-19T02:23:08;94809.84;;;5.97;100.00
13209;BME280;6669;42.678;23.332;2023-02-19T02:25:58;94811.47;;;6.08;100.00
13209;BME280;6669;42.678;23.332;2023-02-19T02:28:44;94815.56;;;5.91;100.00
13209;BME280;6669;42.678;23.332;2023-02-19T02:31:24;94819.22;;;5.98;100.00
13209;BME280;6669;42.678;23.332;2023-02-19T02:33:59;94809.97;;;5.95;100.00
13209;BME280;6669;42.678;23.332;2023-02-19T02:36:30;94817.56;;;5.97;100.00
13209;BME280;6669;42.678;23.332;2023-02-19T02:39:01;94817.72;;;5.95;100.00
13209;BME280;6669;42.678;23.332;2023-02-19T02:41:31;94811.75;;;6.04;100.00
13209;BME280;6669;42.678;23.332;2023-02-19T02:44:01;94818.69;;;6.04;100.00
13209;BME280;6669;42.678;23.332;2023-02-19T02:46:34;94808.50;;;6.02;100.00
13209;BME280;6669;42.678;23.332;2023-02-19T02:49:05;94816.66;;;6.08;100.00
13209;BME280;6669;42.678;23.332;2023-02-19T02:51:45;94811.34;;;6.09;100.00
13209;BME280;6669;42.678;23.332;2023-02-19T02:54:17;94808.22;;;5.96;100.00
13209;BME280;6669;42.678;23.332;2023-02-19T02:57:05;94810.66;;;5.97;100.00
13209;BME280;6669;42.678;23.332;2023-02-19T02:59:37;94799.56;;;5.87;100.00
13209;BME280;6669;42.678;23.332;2023-02-19T03:02:10;94805.78;;;6.04;100.00
13209;BME280;6669;42.678;23.332;2023-02-19T03:04:46;94807.97;;;5.99;100.00
13209;BME280;6669;42.678;23.332;2023-02-19T03:07:40;94818.41;;;5.87;100.00
13209;BME280;6669;42.678;23.332;2023-02-19T03:10:16;94815.13;;;5.95;100.00
13209;BME280;6669;42.678;23.332;2023-02-19T03:12:47;94813.25;;;6.07;100.00
13209;BME280;6669;42.678;23.332;2023-02-19T03:15:40;94817.13;;;6.21;100.00
13209;BME280;6669;42.678;23.332;2023-02-19T03:18:31;94823.16;;;6.12;100.00
13209;BME280;6669;42.678;23.332;2023-02-19T03:21:20;94823.78;;;6.24;100.00
13209;BME280;6669;42.678;23.332;2023-02-19T03:23:50;94833.94;;;6.35;100.00
13209;BME280;6669;42.678;23.332;2023-02-19T03:26:37;94839.41;;;6.32;100.00
13209;BME280;6669;42.678;23.332;2023-02-19T03:29:06;94834.13;;;6.24;100.00
13209;BME280;6669;42.678;23.332;2023-02-19T03:31:57;94835.63;;;6.26;100.00
13209;BME280;6669;42.678;23.332;2023-02-19T03:34:30;94844.03;;;6.28;100.00
13209;BME280;6669;42.678;23.332;2023-02-19T03:37:08;94847.72;;;6.26;100.00
13209;BME280;6669;42.678;23.332;2023-02-19T03:39:37;94839.47;;;6.12;100.00
13209;BME280;6669;42.678;23.332;2023-02-19T03:42:16;94853.81;;;6.25;100.00
13209;BME280;6669;42.678;23.332;2023-02-19T03:44:55;94857.09;;;6.27;100.00
13209;BME280;6669;42.678;23.332;2023-02-19T03:47:29;94859.25;;;6.31;100.00
13209;BME280;6669;42.678;23.332;2023-02-19T03:50:02;94833.91;;;6.07;100.00
13209;BME280;6669;42.678;23.332;2023-02-19T03:52:40;94861.13;;;6.39;100.00
13209;BME280;6669;42.678;23.332;2023-02-19T03:55:12;94864.03;;;6.64;100.00
13209;BME280;6669;42.678;23.332;2023-02-19T03:57:48;94860.50;;;6.65;100.00
13209;BME280;6669;42.678;23.332;2023-02-19T04:00:21;94866.91;;;6.61;100.00
13209;BME280;6669;42.678;23.332;2023-02-19T04:02:59;94872.13;;;6.41;100.00
13209;BME280;6669;42.678;23.332;2023-02-19T04:05:32;94881.97;;;6.28;100.00
13209;BME280;6669;42.678;23.332;2023-02-19T04:08:07;94857.91;;;5.98;100.00
13209;BME280;6669;42.678;23.332;2023-02-19T04:10:36;94866.63;;;6.07;100.00
13209;BME280;6669;42.678;23.332;2023-02-19T04:13:08;94863.34;;;5.95;100.00
13209;BME280;6669;42.678;23.332;2023-02-19T04:15:40;94874.91;;;6.00;100.00
13209;BME280;6669;42.678;23.332;2023-02-19T04:18:13;94881.41;;;5.95;100.00
13209;BME280;6669;42.678;23.332;2023-02-19T04:20:45;94881.97;;;6.18;100.00
13209;BME280;6669;42.678;23.332;2023-02-19T04:23:16;94883.16;;;6.24;100.00
13209;BME280;6669;42.678;23.332;2023-02-19T04:25:48;94880.88;;;6.20;100.00
13209;BME280;6669;42.678;23.332;2023-02-19T04:28:17;94865.53;;;5.89;100.00
13209;BME280;6669;42.678;23.332;2023-02-19T04:30:45;94893.66;;;5.73;100.00
13209;BME280;6669;42.678;23.332;2023-02-19T04:33:13;94883.25;;;5.24;100.00
13209;BME280;6669;42.678;23.332;2023-02-19T04:35:41;94864.66;;;5.20;100.00
13209;BME280;6669;42.678;23.332;2023-02-19T04:38:10;94890.31;;;5.32;100.00
13209;BME280;6669;42.678;23.332;2023-02-19T04:40:40;94891.41;;;5.19;100.00
13209;BME280;6669;42.678;23.332;2023-02-19T04:43:07;94887.75;;;5.32;100.00
13209;BME280;6669;42.678;23.332;2023-02-19T04:45:36;94886.16;;;5.50;100.00
13209;BME280;6669;42.678;23.332;2023-02-19T04:48:04;94884.28;;;5.72;100.00
13209;BME280;6669;42.678;23.332;2023-02-19T04:50:32;94890.41;;;5.91;100.00
13209;BME280;6669;42.678;23.332;2023-02-19T04:53:00;94888.31;;;5.94;100.00
13209;BME280;6669;42.678;23.332;2023-02-19T04:55:29;94898.25;;;5.89;100.00
13209;BME280;6669;42.678;23.332;2023-02-19T04:57:57;94890.66;;;5.87;100.00
13209;BME280;6669;42.678;23.332;2023-02-19T05:00:25;94885.09;;;5.92;100.00
13209;BME280;6669;42.678;23.332;2023-02-19T05:02:53;94895.16;;;6.05;100.00
13209;BME280;6669;42.678;23.332;2023-02-19T05:05:21;94890.09;;;6.13;100.00
13209;BME280;6669;42.678;23.332;2023-02-19T05:07:49;94900.84;;;5.99;100.00
13209;BME280;6669;42.678;23.332;2023-02-19T05:10:16;94894.16;;;5.86;100.00
13209;BME280;6669;42.678;23.332;2023-02-19T05:12:46;94902.75;;;5.87;100.00
13209;BME280;6669;42.678;23.332;2023-02-19T05:15:14;94901.91;;;5.67;100.00
13209;BME280;6669;42.678;23.332;2023-02-19T05:17:42;94912.47;;;5.64;100.00
13209;BME280;6669;42.678;23.332;2023-02-19T05:20:11;94905.03;;;5.61;100.00
13209;BME280;6669;42.678;23.332;2023-02-19T05:22:42;94909.41;;;5.89;100.00
13209;BME280;6669;42.678;23.332;2023-02-19T05:25:10;94894.91;;;5.98;100.00
13209;BME280;6669;42.678;23.332;2023-02-19T05:27:38;94909.81;;;6.24;100.00
13209;BME280;6669;42.678;23.332;2023-02-19T05:30:09;94913.34;;;6.33;100.00
13209;BME280;6669;42.678;23.332;2023-02-19T05:32:38;94918.28;;;6.54;100.00
13209;BME280;6669;42.678;23.332;2023-02-19T05:35:05;94916.25;;;6.67;100.00
13209;BME280;6669;42.678;23.332;2023-02-19T05:37:33;94916.94;;;6.97;100.00
13209;BME280;6669;42.678;23.332;2023-02-19T05:40:01;94936.56;;;6.90;100.00
13209;BME280;6669;42.678;23.332;2023-02-19T05:42:29;94928.09;;;6.98;100.00
13209;BME280;6669;42.678;23.332;2023-02-19T05:44:57;94921.34;;;6.87;100.00
13209;BME280;6669;42.678;23.332;2023-02-19T05:47:26;94936.81;;;6.97;100.00
13209;BME280;6669;42.678;23.332;2023-02-19T05:49:54;94930.97;;;6.95;100.00
13209;BME280;6669;42.678;23.332;2023-02-19T05:52:22;94911.69;;;6.89;100.00
13209;BME280;6669;42.678;23.332;2023-02-19T05:54:50;94932.94;;;7.11;100.00
13209;BME280;6669;42.678;23.332;2023-02-19T05:57:18;94931.31;;;7.10;100.00
13209;BME280;6669;42.678;23.332;2023-02-19T05:59:47;94941.88;;;7.16;100.00
13209;BME280;6669;42.678;23.332;2023-02-19T06:02:15;94949.75;;;7.25;100.00
13209;BME280;6669;42.678;23.332;2023-02-19T06:04:44;94947.25;;;7.33;100.00
13209;BME280;6669;42.678;23.332;2023-02-19T06:07:12;94952.81;;;7.38;100.00
13209;BME280;6669;42.678;23.332;2023-02-19T06:09:40;94955.66;;;7.45;100.00
13209;BME280;6669;42.678;23.332;2023-02-19T06:12:08;94960.38;;;7.22;100.00
13209;BME280;6669;42.678;23.332;2023-02-19T06:14:35;94971.03;;;7.46;100.00
13209;BME280;6669;42.678;23.332;2023-02-19T06:17:03;94965.81;;;7.56;100.00
13209;BME280;6669;42.678;23.332;2023-02-19T06:19:31;94967.53;;;7.65;100.00
13209;BME280;6669;42.678;23.332;2023-02-19T06:22:01;94962.78;;;7.61;100.00
13209;BME280;6669;42.678;23.332;2023-02-19T06:24:32;94966.25;;;7.69;100.00
13209;BME280;6669;42.678;23.332;2023-02-19T06:27:00;94972.50;;;7.77;100.00
13209;BME280;6669;42.678;23.332;2023-02-19T06:29:28;94974.34;;;7.84;100.00
13209;BME280;6669;42.678;23.332;2023-02-19T06:31:58;94964.41;;;7.62;100.00
13209;BME280;6669;42.678;23.332;2023-02-19T06:34:26;94968.69;;;7.71;100.00
13209;BME280;6669;42.678;23.332;2023-02-19T06:36:54;94973.53;;;7.84;100.00
13209;BME280;6669;42.678;23.332;2023-02-19T06:39:25;94972.81;;;7.92;100.00
13209;BME280;6669;42.678;23.332;2023-02-19T06:41:54;94969.63;;;7.98;100.00
13209;BME280;6669;42.678;23.332;2023-02-19T06:44:24;94966.00;;;8.09;100.00
13209;BME280;6669;42.678;23.332;2023-02-19T06:46:54;94975.19;;;8.21;100.00
13209;BME280;6669;42.678;23.332;2023-02-19T06:49:22;94974.72;;;8.26;100.00
13209;BME280;6669;42.678;23.332;2023-02-19T06:51:50;94964.72;;;8.31;100.00
13209;BME280;6669;42.678;23.332;2023-02-19T06:54:18;94966.56;;;8.39;100.00
13209;BME280;6669;42.678;23.332;2023-02-19T06:56:47;94980.03;;;8.42;100.00
13209;BME280;6669;42.678;23.332;2023-02-19T06:59:15;94981.66;;;8.43;100.00
13209;BME280;6669;42.678;23.332;2023-02-19T07:01:43;94973.69;;;8.37;100.00
13209;BME280;6669;42.678;23.332;2023-02-19T07:04:12;94993.81;;;8.43;100.00
13209;BME280;6669;42.678;23.332;2023-02-19T07:06:42;94993.97;;;8.41;100.00
13209;BME280;6669;42.678;23.332;2023-02-19T07:09:10;94986.84;;;8.43;100.00
13209;BME280;6669;42.678;23.332;2023-02-19T07:11:38;94978.00;;;8.46;100.00
13209;BME280;6669;42.678;23.332;2023-02-19T07:14:13;94983.63;;;8.59;100.00
13209;BME280;6669;42.678;23.332;2023-02-19T07:16:41;94985.63;;;8.65;100.00
13209;BME280;6669;42.678;23.332;2023-02-19T07:19:10;94974.78;;;8.70;100.00
13209;BME280;6669;42.678;23.332;2023-02-19T07:21:38;94981.19;;;8.84;100.00
13209;BME280;6669;42.678;23.332;2023-02-19T07:24:08;94977.03;;;8.91;100.00
13209;BME280;6669;42.678;23.332;2023-02-19T07:26:36;94965.88;;;8.99;100.00
13209;BME280;6669;42.678;23.332;2023-02-19T07:29:04;94969.03;;;9.11;100.00
13209;BME280;6669;42.678;23.332;2023-02-19T07:31:34;94958.91;;;9.26;100.00
13209;BME280;6669;42.678;23.332;2023-02-19T07:34:02;94952.13;;;9.33;100.00
13209;BME280;6669;42.678;23.332;2023-02-19T07:36:30;94954.91;;;9.48;100.00
13209;BME280;6669;42.678;23.332;2023-02-19T07:38:58;94955.25;;;9.53;100.00
13209;BME280;6669;42.678;23.332;2023-02-19T07:41:27;94948.50;;;9.69;100.00
13209;BME280;6669;42.678;23.332;2023-02-19T07:43:55;94949.81;;;9.81;100.00
13209;BME280;6669;42.678;23.332;2023-02-19T07:46:23;94950.66;;;9.90;100.00
13209;BME280;6669;42.678;23.332;2023-02-19T07:48:53;94960.44;;;10.04;98.71
13209;BME280;6669;42.678;23.332;2023-02-19T07:51:21;94956.69;;;10.15;98.71
13209;BME280;6669;42.678;23.332;2023-02-19T07:53:49;94936.41;;;10.19;97.91
13209;BME280;6669;42.678;23.332;2023-02-19T07:56:18;94947.47;;;10.29;97.84
13209;BME280;6669;42.678;23.332;2023-02-19T07:58:46;94939.03;;;10.35;96.43
13209;BME280;6669;42.678;23.332;2023-02-19T08:01:15;94950.75;;;10.39;96.95
13209;BME280;6669;42.678;23.332;2023-02-19T08:03:44;94947.66;;;10.52;96.04
13209;BME280;6669;42.678;23.332;2023-02-19T08:06:14;94954.78;;;10.58;95.24
13209;BME280;6669;42.678;23.332;2023-02-19T08:08:42;94947.00;;;10.67;95.07
13209;BME280;6669;42.678;23.332;2023-02-19T08:11:10;94950.38;;;10.84;94.59
13209;BME280;6669;42.678;23.332;2023-02-19T08:13:56;94948.41;;;10.94;93.26
13209;BME280;6669;42.678;23.332;2023-02-19T08:16:23;94945.50;;;10.97;93.11
13209;BME280;6669;42.678;23.332;2023-02-19T08:19:08;94936.16;;;11.11;91.49
13209;BME280;6669;42.678;23.332;2023-02-19T08:21:38;94943.28;;;11.17;90.79
13209;BME280;6669;42.678;23.332;2023-02-19T08:24:06;94932.75;;;11.19;90.09
13209;BME280;6669;42.678;23.332;2023-02-19T08:26:34;94940.81;;;11.40;88.76
13209;BME280;6669;42.678;23.332;2023-02-19T08:29:02;94937.50;;;11.47;87.87
13209;BME280;6669;42.678;23.332;2023-02-19T08:31:30;94909.69;;;11.47;87.19
13209;BME280;6669;42.678;23.332;2023-02-19T08:33:58;94940.19;;;11.61;85.65
13209;BME280;6669;42.678;23.332;2023-02-19T08:36:26;94939.03;;;11.72;84.52
13209;BME280;6669;42.678;23.332;2023-02-19T08:38:56;94939.31;;;11.77;84.38
13209;BME280;6669;42.678;23.332;2023-02-19T08:41:24;94931.81;;;11.74;84.16
13209;BME280;6669;42.678;23.332;2023-02-19T08:43:51;94933.47;;;11.75;83.61
13209;BME280;6669;42.678;23.332;2023-02-19T08:46:19;94927.44;;;11.75;83.63
13209;BME280;6669;42.678;23.332;2023-02-19T08:48:48;94928.84;;;11.86;83.37
13209;BME280;6669;42.678;23.332;2023-02-19T08:51:16;94912.69;;;11.90;83.23
13209;BME280;6669;42.678;23.332;2023-02-19T08:53:44;94919.56;;;12.15;82.40
13209;BME280;6669;42.678;23.332;2023-02-19T08:56:15;94919.38;;;12.39;81.58
13209;BME280;6669;42.678;23.332;2023-02-19T08:58:44;94914.75;;;12.65;79.41
13209;BME280;6669;42.678;23.332;2023-02-19T09:01:14;94913.78;;;12.81;77.60
13209;BME280;6669;42.678;23.332;2023-02-19T09:03:44;94917.03;;;12.98;78.94
13209;BME280;6669;42.678;23.332;2023-02-19T09:06:14;94923.97;;;13.05;78.99
13209;BME280;6669;42.678;23.332;2023-02-19T09:08:43;94892.13;;;12.95;79.58
13209;BME280;6669;42.678;23.332;2023-02-19T09:11:11;94904.19;;;13.11;79.16
13209;BME280;6669;42.678;23.332;2023-02-19T09:13:41;94900.75;;;13.11;79.13
13209;BME280;6669;42.678;23.332;2023-02-19T09:16:09;94886.63;;;13.05;78.08
13209;BME280;6669;42.678;23.332;2023-02-19T09:18:37;94884.47;;;13.08;77.74
13209;BME280;6669;42.678;23.332;2023-02-19T09:21:05;94890.31;;;13.11;77.85
13209;BME280;6669;42.678;23.332;2023-02-19T09:23:34;94876.53;;;13.17;77.79
13209;BME280;6669;42.678;23.332;2023-02-19T09:26:03;94886.06;;;13.24;78.46
13209;BME280;6669;42.678;23.332;2023-02-19T09:28:34;94886.09;;;13.39;79.39
13209;BME280;6669;42.678;23.332;2023-02-19T09:31:06;94881.06;;;13.38;79.27
13209;BME280;6669;42.678;23.332;2023-02-19T09:33:34;94884.47;;;13.38;79.29
13209;BME280;6669;42.678;23.332;2023-02-19T09:36:03;94863.09;;;13.35;81.66
13209;BME280;6669;42.678;23.332;2023-02-19T09:38:31;94882.09;;;13.44;80.84
13209;BME280;6669;42.678;23.332;2023-02-19T09:41:05;94882.75;;;13.46;80.00
13209;BME280;6669;42.678;23.332;2023-02-19T09:43:34;94875.69;;;13.61;80.02
13209;BME280;6669;42.678;23.332;2023-02-19T09:46:10;94871.13;;;13.85;79.54
13209;BME280;6669;42.678;23.332;2023-02-19T09:48:42;94862.88;;;14.10;78.80
13209;BME280;6669;42.678;23.332;2023-02-19T09:51:11;94867.53;;;14.36;75.75
13209;BME280;6669;42.678;23.332;2023-02-19T09:53:43;94860.59;;;14.50;73.25
13209;BME280;6669;42.678;23.332;2023-02-19T09:56:12;94870.50;;;14.83;72.02
13209;BME280;6669;42.678;23.332;2023-02-19T09:58:45;94859.03;;;15.26;69.89
13209;BME280;6669;42.678;23.332;2023-02-19T10:01:16;94835.44;;;15.19;66.33
13209;BME280;6669;42.678;23.332;2023-02-19T10:03:46;94836.09;;;15.34;66.11
13209;BME280;6669;42.678;23.332;2023-02-19T10:06:17;94824.41;;;15.30;65.49
13209;BME280;6669;42.678;23.332;2023-02-19T10:08:48;94821.28;;;15.62;65.51
13209;BME280;6669;42.678;23.332;2023-02-19T10:11:18;94817.53;;;15.98;64.78
13209;BME280;6669;42.678;23.332;2023-02-19T10:13:48;94823.78;;;16.44;61.67
13209;BME280;6669;42.678;23.332;2023-02-19T10:16:23;94792.53;;;16.15;62.39
13209;BME280;6669;42.678;23.332;2023-02-19T10:18:53;94797.75;;;16.49;62.19
13209;BME280;6669;42.678;23.332;2023-02-19T10:21:23;94784.59;;;16.56;61.14
13209;BME280;6669;42.678;23.332;2023-02-19T10:23:54;94793.63;;;16.93;59.95
13209;BME280;6669;42.678;23.332;2023-02-19T10:26:24;94780.59;;;17.19;59.77
13209;BME280;6669;42.678;23.332;2023-02-19T10:28:53;94781.38;;;17.26;58.34
13209;BME280;6669;42.678;23.332;2023-02-19T10:31:24;94786.72;;;16.99;58.68
13209;BME280;6669;42.678;23.332;2023-02-19T10:33:53;94781.59;;;16.52;59.12
13209;BME280;6669;42.678;23.332;2023-02-19T10:36:25;94764.19;;;16.71;59.24
13209;BME280;6669;42.678;23.332;2023-02-19T10:38:58;94745.75;;;16.98;58.69
13209;BME280;6669;42.678;23.332;2023-02-19T10:41:27;94743.69;;;17.07;58.12
13209;BME280;6669;42.678;23.332;2023-02-19T10:44:02;94743.75;;;17.32;57.64
13209;BME280;6669;42.678;23.332;2023-02-19T10:46:35;94739.38;;;17.19;57.60
13209;BME280;6669;42.678;23.332;2023-02-19T10:49:16;94724.09;;;17.41;57.15
13209;BME280;6669;42.678;23.332;2023-02-19T10:51:46;94727.47;;;17.55;57.00
13209;BME280;6669;42.678;23.332;2023-02-19T10:54:16;94715.06;;;17.88;55.92
13209;BME280;6669;42.678;23.332;2023-02-19T10:56:45;94723.59;;;18.08;55.98
13209;BME280;6669;42.678;23.332;2023-02-19T10:59:21;94724.31;;;17.97;55.76
13209;BME280;6669;42.678;23.332;2023-02-19T11:01:55;94717.31;;;18.53;55.12
13209;BME280;6669;42.678;23.332;2023-02-19T11:04:25;94697.72;;;18.30;54.62
13209;BME280;6669;42.678;23.332;2023-02-19T11:06:54;94708.22;;;18.12;54.38
13209;BME280;6669;42.678;23.332;2023-02-19T11:09:26;94706.00;;;17.58;55.12
13209;BME280;6669;42.678;23.332;2023-02-19T11:11:55;94684.34;;;17.88;55.37
13209;BME280;6669;42.678;23.332;2023-02-19T11:14:26;94681.00;;;18.00;54.57
13209;BME280;6669;42.678;23.332;2023-02-19T11:16:59;94667.16;;;18.48;54.83
13209;BME280;6669;42.678;23.332;2023-02-19T11:19:34;94672.19;;;18.68;54.26
13209;BME280;6669;42.678;23.332;2023-02-19T11:22:18;94668.91;;;18.91;53.52
13209;BME280;6669;42.678;23.332;2023-02-19T11:24:47;94657.16;;;19.06;53.23
13209;BME280;6669;42.678;23.332;2023-02-19T11:27:22;94662.28;;;18.82;52.84
13209;BME280;6669;42.678;23.332;2023-02-19T11:29:51;94668.22;;;18.96;52.01
13209;BME280;6669;42.678;23.332;2023-02-19T11:32:26;94652.44;;;18.59;52.63
13209;BME280;6669;42.678;23.332;2023-02-19T11:35:14;94635.94;;;19.01;52.09
13209;BME280;6669;42.678;23.332;2023-02-19T11:37:54;94639.69;;;19.35;51.94
13209;BME280;6669;42.678;23.332;2023-02-19T11:43:22;94634.84;;;19.20;50.74
13209;BME280;6669;42.678;23.332;2023-02-19T11:46:00;94642.34;;;18.93;51.54
13209;BME280;6669;42.678;23.332;2023-02-19T11:48:38;94636.84;;;18.94;51.31
13209;BME280;6669;42.678;23.332;2023-02-19T11:51:30;94622.19;;;18.99;51.24
13209;BME280;6669;42.678;23.332;2023-02-19T11:54:13;94619.63;;;19.22;50.72
13209;BME280;6669;42.678;23.332;2023-02-19T11:56:48;94612.56;;;19.35;50.15
13209;BME280;6669;42.678;23.332;2023-02-19T11:59:26;94624.00;;;19.28;50.03
13209;BME280;6669;42.678;23.332;2023-02-19T12:05:28;94596.75;;;19.70;48.76
13209;BME280;6669;42.678;23.332;2023-02-19T12:11:36;94579.69;;;20.37;48.24
13209;BME280;6669;42.678;23.332;2023-02-19T12:14:33;94581.31;;;20.67;47.73
13209;BME280;6669;42.678;23.332;2023-02-19T12:17:10;94569.59;;;20.75;47.07
13209;BME280;6669;42.678;23.332;2023-02-19T12:19:58;94577.53;;;20.75;46.40
13209;BME280;6669;42.678;23.332;2023-02-19T12:22:36;94558.16;;;20.57;46.90
13209;BME280;6669;42.678;23.332;2023-02-19T12:25:29;94566.41;;;20.73;46.48
13209;BME280;6669;42.678;23.332;2023-02-19T12:28:16;94557.78;;;20.37;46.10
13209;BME280;6669;42.678;23.332;2023-02-19T12:31:09;94552.59;;;20.42;46.81
13209;BME280;6669;42.678;23.332;2023-02-19T12:34:00;94542.72;;;20.78;46.35
13209;BME280;6669;42.678;23.332;2023-02-19T12:36:40;94535.13;;;21.33;46.07
13209;BME280;6669;42.678;23.332;2023-02-19T12:39:21;94539.31;;;21.29;46.23
13209;BME280;6669;42.678;23.332;2023-02-19T12:42:01;94531.06;;;21.42;45.25
13209;BME280;6669;42.678;23.332;2023-02-19T12:44:37;94519.13;;;21.22;45.48
13209;BME280;6669;42.678;23.332;2023-02-19T12:47:16;94521.69;;;21.17;45.34
13209;BME280;6669;42.678;23.332;2023-02-19T12:49:48;94530.16;;;21.02;45.49
13209;BME280;6669;42.678;23.332;2023-02-19T12:52:20;94513.34;;;21.60;45.89
13209;BME280;6669;42.678;23.332;2023-02-19T12:54:54;94511.88;;;21.52;46.19
13209;BME280;6669;42.678;23.332;2023-02-19T12:57:32;94497.38;;;21.94;46.27
13209;BME280;6669;42.678;23.332;2023-02-19T13:00:06;94473.50;;;21.66;45.76
13209;BME280;6669;42.678;23.332;2023-02-19T13:02:41;94483.19;;;22.49;45.78
13209;BME280;6669;42.678;23.332;2023-02-19T13:05:18;94481.72;;;23.29;45.27
13209;BME280;6669;42.678;23.332;2023-02-19T13:07:52;94476.84;;;23.58;44.72
13209;BME280;6669;42.678;23.332;2023-02-19T13:10:34;94451.88;;;23.49;43.69
13209;BME280;6669;42.678;23.332;2023-02-19T13:13:11;94470.91;;;23.89;43.23
13209;BME280;6669;42.678;23.332;2023-02-19T13:15:46;94468.78;;;23.86;43.34
13209;BME280;6669;42.678;23.332;2023-02-19T13:18:19;94462.47;;;23.92;42.84
13209;BME280;6669;42.678;23.332;2023-02-19T13:20:50;94454.59;;;24.18;42.17
13209;BME280;6669;42.678;23.332;2023-02-19T13:23:24;94438.34;;;24.09;41.74
13209;BME280;6669;42.678;23.332;2023-02-19T13:26:29;94446.19;;;24.67;42.43
13209;BME280;6669;42.678;23.332;2023-02-19T13:29:15;94449.53;;;23.58;42.57
13209;BME280;6669;42.678;23.332;2023-02-19T13:32:07;94446.03;;;24.05;42.16
13209;BME280;6669;42.678;23.332;2023-02-19T13:34:47;94441.06;;;23.66;41.89
13209;BME280;6669;42.678;23.332;2023-02-19T13:37:20;94435.66;;;23.93;42.21
13209;BME280;6669;42.678;23.332;2023-02-19T13:39:52;94434.97;;;24.55;42.00